Time;durP1;ratioP1;P1;durP2;ratioP2;P2;SDS_P1;SDS_P2;PMS_P1;PMS_P2;Temp;Humidity;BMP_temperature;BMP_pressure;BME280_temperature;BME280_humidity;BME280_pressure;Samples;Min_cycle;Max_cycle;Signal;HPM_P1;HPM_P2
2024/02/22 00:03:45;;;;;;;10.30;3.97;;;;;;;;;;10330972;28;20042;-61
2024/02/22 00:08:45;;;;;;;10.05;4.65;;;;;;;;;;10330767;28;20033;-61
2024/02/22 00:13:46;;;;;;;7.15;3.95;;;;;;;;;;10331412;28;20038;-61
2024/02/22 00:18:47;;;;;;;11.27;5.00;;;;;;;;;;10331834;28;20266;-62
2024/02/22 00:23:47;;;;;;;9.15;4.28;;;;;;;;;;10330299;28;20034;-61
2024/02/22 00:28:48;;;;;;;6.82;4.30;;;;;;;;;;10330256;28;20045;-61
2024/02/22 00:33:49;;;;;;;8.00;4.28;;;;;;;;;;10329703;28;20022;-61
2024/02/22 00:38:50;;;;;;;13.00;4.78;;;;;;;;;;10329886;28;20026;-61
2024/02/22 00:43:53;;;;;;;6.78;4.22;;;;;;;;;;10329499;28;20459;-61
2024/02/22 00:48:53;;;;;;;7.30;4.32;;;;;;;;;;10329453;28;20401;-61
2024/02/22 00:53:54;;;;;;;8.65;4.10;;;;;;;;;;10329660;28;20042;-61
2024/02/22 00:58:55;;;;;;;6.70;4.15;;;;;;;;;;10329295;28;20057;-61
2024/02/22 01:03:55;;;;;;;6.55;4.22;;;;;;;;;;10328639;28;20038;-60
2024/02/22 01:08:56;;;;;;;6.22;4.30;;;;;;;;;;10328614;28;20022;-60
2024/02/22 01:13:56;;;;;;;7.32;4.13;;;;;;;;;;10328647;28;20027;-60
2024/02/22 01:18:57;;;;;;;9.85;4.53;;;;;;;;;;10328676;28;20026;-60
2024/02/22 01:23:58;;;;;;;11.55;4.25;;;;;;;;;;10328136;28;20022;-60
2024/02/22 01:28:58;;;;;;;6.95;4.45;;;;;;;;;;10328082;28;20026;-61
2024/02/22 01:33:59;;;;;;;9.82;4.57;;;;;;;;;;10328491;28;20034;-61
2024/02/22 01:39:01;;;;;;;9.10;4.57;;;;;;;;;;10327548;28;20034;-61
2024/02/22 01:44:02;;;;;;;8.23;4.60;;;;;;;;;;10327598;28;20847;-61
2024/02/22 01:49:05;;;;;;;10.00;4.30;;;;;;;;;;10327803;28;20034;-61
2024/02/22 01:54:06;;;;;;;9.07;4.40;;;;;;;;;;10327487;28;20091;-61
2024/02/22 01:59:07;;;;;;;7.28;3.90;;;;;;;;;;10327010;28;20417;-62
2024/02/22 02:04:10;;;;;;;8.85;4.07;;;;;;;;;;10327267;28;20536;-60
2024/02/22 02:09:11;;;;;;;6.22;4.32;;;;;;;;;;10326004;28;20121;-61
2024/02/22 02:14:12;;;;;;;6.13;3.53;;;;;;;;;;10326589;28;20058;-61
2024/02/22 02:19:24;;;;;;;6.07;4.13;;;;;;;;;;10326879;28;20158;-59
2024/02/22 02:25:01;;;;;;;7.13;4.22;;;;;;;;;;10325860;28;20030;-60
2024/02/22 02:30:01;;;;;;;7.55;3.97;;;;;;;;;;10322714;28;20054;-59
2024/02/22 02:35:02;;;;;;;7.40;4.20;;;;;;;;;;10326230;28;20417;-60
2024/02/22 02:40:04;;;;;;;8.88;4.15;;;;;;;;;;10326059;28;20266;-59
2024/02/22 02:45:04;;;;;;;6.03;4.07;;;;;;;;;;10326225;28;20027;-60
2024/02/22 02:50:06;;;;;;;4.82;3.80;;;;;;;;;;10326234;28;20031;-59
2024/02/22 02:55:09;;;;;;;5.85;4.07;;;;;;;;;;10325729;28;20033;-60
2024/02/22 03:00:13;;;;;;;5.20;3.70;;;;;;;;;;10326878;28;20030;-60
2024/02/22 03:05:14;;;;;;;5.22;3.55;;;;;;;;;;10332822;28;20149;-61
2024/02/22 03:10:14;;;;;;;5.20;4.00;;;;;;;;;;10333271;28;20051;-59
2024/02/22 03:15:15;;;;;;;6.40;4.45;;;;;;;;;;10332877;28;20026;-59
2024/02/22 03:20:17;;;;;;;6.38;3.88;;;;;;;;;;10333708;28;20113;-60
2024/02/22 03:25:17;;;;;;;6.75;3.90;;;;;;;;;;10332548;28;20026;-60
2024/02/22 03:30:18;;;;;;;5.85;4.38;;;;;;;;;;10332476;28;20031;-61
2024/02/22 03:35:19;;;;;;;6.68;4.43;;;;;;;;;;10331776;28;20089;-60
2024/02/22 03:40:20;;;;;;;9.88;4.47;;;;;;;;;;10331625;28;20034;-60
2024/02/22 03:45:21;;;;;;;7.30;4.07;;;;;;;;;;10332424;28;20022;-60
2024/02/22 03:50:22;;;;;;;5.93;3.80;;;;;;;;;;10332203;28;20054;-60
2024/02/22 03:55:23;;;;;;;6.30;4.13;;;;;;;;;;10331630;28;20085;-61
2024/02/22 04:00:24;;;;;;;5.28;4.05;;;;;;;;;;10331574;28;20277;-60
2024/02/22 04:05:25;;;;;;;5.40;3.55;;;;;;;;;;10331425;28;20084;-61
2024/02/22 04:10:25;;;;;;;5.30;3.45;;;;;;;;;;10331427;28;20489;-65
2024/02/22 04:15:26;;;;;;;7.10;4.03;;;;;;;;;;10330097;28;20026;-60
2024/02/22 04:20:26;;;;;;;6.63;4.03;;;;;;;;;;10330921;28;20026;-61
2024/02/22 04:25:27;;;;;;;5.90;3.88;;;;;;;;;;10330299;28;20033;-60
2024/02/22 04:30:27;;;;;;;8.00;4.18;;;;;;;;;;10330591;28;20080;-61
2024/02/22 04:35:28;;;;;;;4.88;3.40;;;;;;;;;;10330095;28;20033;-61
2024/02/22 04:40:29;;;;;;;7.10;4.20;;;;;;;;;;10329754;28;20023;-60
2024/02/22 04:45:31;;;;;;;5.60;4.18;;;;;;;;;;10330040;28;20110;-61
2024/02/22 04:50:34;;;;;;;5.60;3.90;;;;;;;;;;10329860;28;20452;-60
2024/02/22 04:55:35;;;;;;;4.75;3.70;;;;;;;;;;10329225;28;20030;-59
2024/02/22 05:00:36;;;;;;;5.07;3.75;;;;;;;;;;10329664;28;20034;-60
2024/02/22 05:05:36;;;;;;;5.35;4.10;;;;;;;;;;10329010;28;20043;-60
2024/02/22 05:10:38;;;;;;;5.90;3.92;;;;;;;;;;10328519;28;20041;-60
2024/02/22 05:15:39;;;;;;;4.30;3.30;;;;;;;;;;10328382;28;20386;-60
2024/02/22 05:20:40;;;;;;;6.03;3.63;;;;;;;;;;10328317;28;20035;-60
2024/02/22 05:25:41;;;;;;;3.33;3.03;;;;;;;;;;10328475;28;20031;-61
2024/02/22 05:30:41;;;;;;;5.53;3.55;;;;;;;;;;10327687;28;20398;-60
2024/02/22 05:35:42;;;;;;;4.97;3.22;;;;;;;;;;10327588;28;20022;-61
2024/02/22 05:40:43;;;;;;;4.18;3.17;;;;;;;;;;10327393;28;20044;-61
2024/02/22 05:45:46;;;;;;;4.75;3.67;;;;;;;;;;10327600;28;20177;-61
2024/02/22 05:50:47;;;;;;;4.22;3.45;;;;;;;;;;10326267;28;20041;-61
2024/02/22 05:55:47;;;;;;;5.45;3.35;;;;;;;;;;10326941;28;20037;-61
2024/02/22 06:00:48;;;;;;;4.65;3.25;;;;;;;;;;10326983;28;20022;-62
2024/02/22 06:05:48;;;;;;;4.85;3.72;;;;;;;;;;10326828;28;20049;-61
2024/02/22 06:10:50;;;;;;;4.45;3.60;;;;;;;;;;10326626;28;20022;-61
2024/02/22 06:15:52;;;;;;;4.68;3.63;;;;;;;;;;10326502;28;20030;-61
2024/02/22 06:20:53;;;;;;;5.10;3.53;;;;;;;;;;10325886;28;20042;-61
2024/02/22 06:25:55;;;;;;;3.60;3.30;;;;;;;;;;10326271;28;20035;-61
2024/02/22 06:30:55;;;;;;;4.45;3.50;;;;;;;;;;10326665;28;20462;-61
2024/02/22 06:35:57;;;;;;;3.78;3.10;;;;;;;;;;10326735;28;20023;-60
2024/02/22 06:40:58;;;;;;;3.10;2.78;;;;;;;;;;10334641;28;20042;-61
2024/02/22 06:45:59;;;;;;;4.32;3.10;;;;;;;;;;10333869;28;20792;-61
2024/02/22 06:50:59;;;;;;;3.53;3.17;;;;;;;;;;10334283;28;20034;-61
2024/02/22 06:56:00;;;;;;;14.63;3.80;;;;;;;;;;10333644;28;20034;-60
2024/02/22 07:01:00;;;;;;;11.15;4.22;;;;;;;;;;10333388;28;20041;-62
2024/02/22 07:06:01;;;;;;;10.95;4.57;;;;;;;;;;10332057;28;20053;-62
2024/02/22 07:11:04;;;;;;;7.53;4.25;;;;;;;;;;10333011;28;20034;-61
2024/02/22 07:16:06;;;;;;;11.27;6.03;;;;;;;;;;10332732;28;20031;-62
2024/02/22 07:21:07;;;;;;;16.10;6.03;;;;;;;;;;10330963;28;20037;-61
2024/02/22 07:26:09;;;;;;;12.55;6.20;;;;;;;;;;10332859;28;20027;-61
2024/02/22 07:31:10;;;;;;;9.30;6.75;;;;;;;;;;10333200;28;20033;-68
2024/02/22 07:36:10;;;;;;;11.05;6.80;;;;;;;;;;10332170;28;20202;-62
2024/02/22 07:41:15;;;;;;;21.63;6.32;;;;;;;;;;10332819;28;20033;-61
2024/02/22 07:46:16;;;;;;;15.63;5.93;;;;;;;;;;10332818;28;20035;-61
2024/02/22 07:51:17;;;;;;;10.75;5.57;;;;;;;;;;10330626;28;20463;-61
2024/02/22 07:56:18;;;;;;;7.82;6.72;;;;;;;;;;10331600;28;20030;-62
2024/02/22 08:01:18;;;;;;;8.40;6.40;;;;;;;;;;10331403;28;20085;-61
2024/02/22 08:06:20;;;;;;;9.70;6.65;;;;;;;;;;10330795;28;20054;-61
2024/02/22 08:11:20;;;;;;;18.13;7.18;;;;;;;;;;10330737;28;20271;-61
2024/02/22 08:16:21;;;;;;;12.88;6.15;;;;;;;;;;10330435;28;20034;-62
2024/02/22 08:21:22;;;;;;;11.38;7.00;;;;;;;;;;10330273;28;20023;-64
2024/02/22 08:26:22;;;;;;;9.93;6.82;;;;;;;;;;10330638;28;20027;-61
2024/02/22 08:31:24;;;;;;;6.97;6.10;;;;;;;;;;10330755;28;20041;-62
2024/02/22 08:36:24;;;;;;;9.50;6.85;;;;;;;;;;10329888;28;20485;-62
2024/02/22 08:41:26;;;;;;;10.00;7.22;;;;;;;;;;10329486;28;20023;-61
2024/02/22 08:46:28;;;;;;;10.55;6.78;;;;;;;;;;10329961;28;20457;-61
2024/02/22 08:51:28;;;;;;;11.13;6.25;;;;;;;;;;10329606;28;20022;-61
2024/02/22 08:56:29;;;;;;;10.52;6.57;;;;;;;;;;10329295;28;20023;-66
2024/02/22 09:01:32;;;;;;;9.27;7.18;;;;;;;;;;10329040;28;20089;-67
2024/02/22 09:06:33;;;;;;;9.85;6.78;;;;;;;;;;10328787;28;20050;-61
2024/02/22 09:11:33;;;;;;;10.52;6.60;;;;;;;;;;10329021;28;20037;-61
2024/02/22 09:16:34;;;;;;;9.98;6.55;;;;;;;;;;10328864;28;20057;-61
2024/02/22 09:21:35;;;;;;;11.38;6.85;;;;;;;;;;10328474;28;20034;-61
2024/02/22 09:26:35;;;;;;;8.15;6.22;;;;;;;;;;10328314;28;20080;-63
2024/02/22 09:31:36;;;;;;;9.13;6.45;;;;;;;;;;10327980;28;20093;-61
2024/02/22 09:36:36;;;;;;;8.18;6.32;;;;;;;;;;10327874;28;20023;-61
2024/02/22 09:41:37;;;;;;;12.88;7.47;;;;;;;;;;10327770;28;20088;-61
2024/02/22 09:46:39;;;;;;;8.63;6.35;;;;;;;;;;10326732;28;20036;-61
2024/02/22 09:51:39;;;;;;;7.63;6.43;;;;;;;;;;10325836;28;20026;-61
2024/02/22 09:56:43;;;;;;;9.85;6.57;;;;;;;;;;10326506;28;20030;-61
2024/02/22 10:01:45;;;;;;;8.88;6.45;;;;;;;;;;10326388;28;20037;-61
2024/02/22 10:06:46;;;;;;;7.65;6.07;;;;;;;;;;10326633;28;20076;-61
2024/02/22 10:11:47;;;;;;;7.85;6.28;;;;;;;;;;10325833;28;20038;-61
2024/02/22 10:16:48;;;;;;;9.10;6.57;;;;;;;;;;10326573;28;20045;-61
2024/02/22 10:21:55;;;;;;;9.05;6.25;;;;;;;;;;10326509;28;20022;-60
2024/02/22 10:27:04;;;;;;;9.25;6.88;;;;;;;;;;10326570;28;20378;-61
2024/02/22 10:32:07;;;;;;;15.80;6.22;;;;;;;;;;10326867;28;20036;-61
2024/02/22 10:37:10;;;;;;;8.93;5.88;;;;;;;;;;10326397;28;20170;-61
2024/02/22 10:42:13;;;;;;;11.90;6.50;;;;;;;;;;10326972;28;20169;-60
2024/02/22 10:47:14;;;;;;;7.80;6.15;;;;;;;;;;10326654;28;20035;-61
2024/02/22 10:52:15;;;;;;;7.80;6.03;;;;;;;;;;10326136;28;20030;-61
2024/02/22 10:57:18;;;;;;;9.20;6.05;;;;;;;;;;10326651;28;20063;-64
2024/02/22 11:02:20;;;;;;;6.93;5.78;;;;;;;;;;10324642;28;20132;-61
2024/02/22 11:07:21;;;;;;;8.95;6.03;;;;;;;;;;10324385;28;20521;-61
2024/02/22 11:12:29;;;;;;;9.18;6.13;;;;;;;;;;10324782;28;20029;-61
2024/02/22 11:17:30;;;;;;;8.33;6.03;;;;;;;;;;10325974;28;20526;-60
2024/02/22 11:22:34;;;;;;;9.40;6.30;;;;;;;;;;10327273;28;20038;-62
2024/02/22 11:27:39;;;;;;;7.88;5.85;;;;;;;;;;10333156;28;20061;-63
2024/02/22 11:32:39;;;;;;;11.63;6.32;;;;;;;;;;10333115;28;20038;-61
2024/02/22 11:37:40;;;;;;;8.43;6.10;;;;;;;;;;10332448;28;20500;-61
2024/02/22 11:42:41;;;;;;;7.88;5.88;;;;;;;;;;10332310;28;20170;-60
2024/02/22 11:47:42;;;;;;;6.85;5.65;;;;;;;;;;10332341;28;20037;-61
2024/02/22 11:52:44;;;;;;;13.23;6.22;;;;;;;;;;10332293;28;20084;-61
2024/02/22 11:57:44;;;;;;;9.20;5.90;;;;;;;;;;10331839;28;20018;-62
2024/02/22 12:02:45;;;;;;;7.85;6.07;;;;;;;;;;10331183;28;20057;-61
2024/02/22 12:07:49;;;;;;;10.82;6.30;;;;;;;;;;10331841;28;20422;-61
2024/02/22 12:12:50;;;;;;;11.02;5.75;;;;;;;;;;10331167;28;20482;-61
2024/02/22 12:17:52;;;;;;;6.72;5.75;;;;;;;;;;10331145;28;20026;-61
2024/02/22 12:22:54;;;;;;;7.65;5.88;;;;;;;;;;10330601;28;20022;-61
2024/02/22 12:27:57;;;;;;;5.82;5.20;;;;;;;;;;10330461;28;20030;-65
2024/02/22 12:32:57;;;;;;;7.70;5.55;;;;;;;;;;10330102;28;20034;-62
2024/02/22 12:38:00;;;;;;;5.97;5.20;;;;;;;;;;10329875;28;20030;-61
2024/02/22 12:43:00;;;;;;;11.88;5.32;;;;;;;;;;10329975;28;20026;-61
2024/02/22 12:48:01;;;;;;;8.07;5.32;;;;;;;;;;10329727;28;20037;-64
2024/02/22 12:53:03;;;;;;;6.78;5.03;;;;;;;;;;10330252;28;20466;-63
2024/02/22 12:58:07;;;;;;;9.27;5.55;;;;;;;;;;10329842;28;20034;-61
2024/02/22 13:03:09;;;;;;;7.25;5.78;;;;;;;;;;10328673;28;20498;-61
2024/02/22 13:08:09;;;;;;;7.10;6.00;;;;;;;;;;10328893;28;20049;-66
2024/02/22 13:13:10;;;;;;;7.43;5.50;;;;;;;;;;10328732;28;20033;-68
2024/02/22 13:18:10;;;;;;;10.48;5.80;;;;;;;;;;10328720;28;20438;-64
2024/02/22 13:23:11;;;;;;;6.63;5.57;;;;;;;;;;10328184;28;20061;-61
2024/02/22 13:28:11;;;;;;;7.05;5.65;;;;;;;;;;10327889;28;20038;-61
2024/02/22 13:33:12;;;;;;;9.15;5.88;;;;;;;;;;10328119;28;20085;-60
2024/02/22 13:38:13;;;;;;;7.78;5.72;;;;;;;;;;10328102;28;20466;-61
2024/02/22 13:43:15;;;;;;;7.40;5.80;;;;;;;;;;10326973;28;20053;-61
2024/02/22 13:48:16;;;;;;;8.18;5.53;;;;;;;;;;10326652;28;20041;-62
2024/02/22 13:53:17;;;;;;;7.65;5.80;;;;;;;;;;10327152;28;20061;-61
2024/02/22 13:58:18;;;;;;;10.77;6.03;;;;;;;;;;10326871;28;20042;-65
2024/02/22 14:03:18;;;;;;;7.88;6.38;;;;;;;;;;10326062;28;20089;-62
2024/02/22 14:08:20;;;;;;;7.70;5.60;;;;;;;;;;10326326;28;20046;-60
2024/02/22 14:13:23;;;;;;;8.32;5.82;;;;;;;;;;10326341;28;20022;-61
2024/02/22 14:18:24;;;;;;;7.88;6.10;;;;;;;;;;10325480;28;20102;-60
2024/02/22 14:23:24;;;;;;;8.70;5.90;;;;;;;;;;10325711;28;20022;-62
2024/02/22 14:28:25;;;;;;;8.15;6.22;;;;;;;;;;10326662;28;20481;-61
2024/02/22 14:33:26;;;;;;;7.72;5.97;;;;;;;;;;10326376;28;20038;-66
2024/02/22 14:38:27;;;;;;;8.43;5.90;;;;;;;;;;10326046;28;20026;-63
2024/02/22 14:43:28;;;;;;;15.88;5.85;;;;;;;;;;10326150;28;20026;-62
2024/02/22 14:48:29;;;;;;;16.63;6.72;;;;;;;;;;10324795;28;20046;-65
2024/02/22 14:53:30;;;;;;;22.42;7.28;;;;;;;;;;10325759;28;20034;-66
2024/02/22 14:58:31;;;;;;;39.38;8.57;;;;;;;;;;10329040;28;20046;-64
2024/02/22 15:03:32;;;;;;;36.38;8.93;;;;;;;;;;10332913;28;20065;-65
2024/02/22 15:08:35;;;;;;;48.53;8.45;;;;;;;;;;10333624;28;20034;-65
2024/02/22 15:13:39;;;;;;;32.58;8.93;;;;;;;;;;10332433;28;20026;-65
2024/02/22 15:18:39;;;;;;;23.48;7.93;;;;;;;;;;10332732;28;20026;-65
2024/02/22 15:23:40;;;;;;;20.08;7.53;;;;;;;;;;10333420;28;20371;-65
2024/02/22 15:28:40;;;;;;;26.33;7.90;;;;;;;;;;10332570;28;20467;-65
2024/02/22 15:33:41;;;;;;;19.67;6.60;;;;;;;;;;10332735;28;20030;-65
2024/02/22 15:38:41;;;;;;;15.70;7.55;;;;;;;;;;10332413;28;20474;-65
2024/02/22 15:43:42;;;;;;;19.65;7.57;;;;;;;;;;10331944;28;20493;-65
2024/02/22 15:48:42;;;;;;;13.63;7.25;;;;;;;;;;10332356;28;20104;-65
2024/02/22 15:53:43;;;;;;;13.10;6.43;;;;;;;;;;10331993;28;20045;-65
2024/02/22 15:58:44;;;;;;;13.82;6.10;;;;;;;;;;10331955;28;20014;-65
2024/02/22 16:03:45;;;;;;;14.43;6.68;;;;;;;;;;10331169;28;20061;-65
2024/02/22 16:08:46;;;;;;;18.17;6.32;;;;;;;;;;10329690;28;20109;-65
2024/02/22 16:13:47;;;;;;;13.52;6.45;;;;;;;;;;10330317;28;20022;-65
2024/02/22 16:18:50;;;;;;;12.73;6.65;;;;;;;;;;10330600;28;20046;-65
2024/02/22 16:23:54;;;;;;;10.50;6.63;;;;;;;;;;10330912;28;20037;-65
2024/02/22 16:28:54;;;;;;;10.93;6.22;;;;;;;;;;10330655;28;20034;-65
2024/02/22 16:33:57;;;;;;;16.67;6.13;;;;;;;;;;10330551;28;20050;-65
2024/02/22 16:38:57;;;;;;;8.25;5.72;;;;;;;;;;10330739;28;20102;-65
2024/02/22 16:43:58;;;;;;;8.50;6.30;;;;;;;;;;10329887;28;20034;-65
2024/02/22 16:48:58;;;;;;;6.75;5.95;;;;;;;;;;10329428;28;20040;-65
2024/02/22 16:53:59;;;;;;;8.98;6.20;;;;;;;;;;10329540;28;20035;-65
2024/02/22 16:59:03;;;;;;;8.43;5.88;;;;;;;;;;10329174;28;20026;-65
2024/02/22 17:04:04;;;;;;;11.30;6.25;;;;;;;;;;10344462;23;20082;-60
2024/02/22 17:09:05;;;;;;;10.43;6.43;;;;;;;;;;10333903;28;20439;-60
2024/02/22 17:14:06;;;;;;;8.82;6.55;;;;;;;;;;10330731;28;20080;-60
2024/02/22 17:19:07;;;;;;;11.82;6.50;;;;;;;;;;10327919;28;20355;-60
2024/02/22 17:24:07;;;;;;;9.73;6.35;;;;;;;;;;10326316;28;20422;-59
2024/02/22 17:29:08;;;;;;;7.65;6.18;;;;;;;;;;10316173;28;20485;-60
2024/02/22 17:34:08;;;;;;;9.02;6.45;;;;;;;;;;10326110;28;20022;-62
2024/02/22 17:39:09;;;;;;;9.32;6.45;;;;;;;;;;10325545;28;20383;-62
2024/02/22 17:44:10;;;;;;;10.70;6.35;;;;;;;;;;10325913;28;20233;-61
2024/02/22 17:49:11;;;;;;;8.43;6.30;;;;;;;;;;10326369;28;20062;-59
2024/02/22 17:54:12;;;;;;;9.23;6.25;;;;;;;;;;10325270;28;20026;-61
2024/02/22 17:59:12;;;;;;;13.93;6.50;;;;;;;;;;10325800;28;20084;-60
2024/02/22 18:04:13;;;;;;;18.88;6.68;;;;;;;;;;10326804;28;20205;-61
2024/02/22 18:09:14;;;;;;;9.90;6.13;;;;;;;;;;10326463;28;20181;-60
2024/02/22 18:14:14;;;;;;;10.32;6.05;;;;;;;;;;10326919;28;20097;-64
2024/02/22 18:19:15;;;;;;;11.95;6.38;;;;;;;;;;10325536;28;20031;-61
2024/02/22 18:24:15;;;;;;;7.22;5.40;;;;;;;;;;10325416;28;20026;-63
2024/02/22 18:29:16;;;;;;;13.95;6.60;;;;;;;;;;10325953;28;20087;-61
2024/02/22 18:34:17;;;;;;;7.53;5.38;;;;;;;;;;10329961;28;20398;-61
2024/02/22 18:39:17;;;;;;;10.40;6.05;;;;;;;;;;10334572;28;20030;-61
2024/02/22 18:44:18;;;;;;;9.35;6.28;;;;;;;;;;10332803;28;20034;-61
2024/02/22 18:49:20;;;;;;;7.57;5.43;;;;;;;;;;10332854;28;20041;-61
2024/02/22 18:54:20;;;;;;;9.18;6.15;;;;;;;;;;10331702;28;20030;-61
2024/02/22 18:59:21;;;;;;;12.70;6.00;;;;;;;;;;10333246;28;20030;-62
2024/02/22 19:04:22;;;;;;;12.85;7.15;;;;;;;;;;10334112;28;20042;-61
2024/02/22 19:09:23;;;;;;;11.20;6.82;;;;;;;;;;10333172;28;20027;-61
2024/02/22 19:14:23;;;;;;;13.52;6.85;;;;;;;;;;10333097;28;20026;-61
2024/02/22 19:19:25;;;;;;;14.43;6.85;;;;;;;;;;10332881;28;20022;-61
2024/02/22 19:24:27;;;;;;;10.10;7.03;;;;;;;;;;10333116;28;20039;-61
2024/02/22 19:29:28;;;;;;;12.52;6.95;;;;;;;;;;10332873;28;20055;-60
2024/02/22 19:34:29;;;;;;;12.13;6.65;;;;;;;;;;10332478;28;20022;-60
2024/02/22 19:39:29;;;;;;;10.27;6.85;;;;;;;;;;10332505;28;20034;-60
2024/02/22 19:44:30;;;;;;;11.60;6.45;;;;;;;;;;10330768;28;20385;-60
2024/02/22 19:49:33;;;;;;;9.88;6.13;;;;;;;;;;10331793;28;20414;-60
2024/02/22 19:54:34;;;;;;;12.73;6.95;;;;;;;;;;10330252;28;20497;-60
2024/02/22 19:59:34;;;;;;;11.50;6.85;;;;;;;;;;10331397;28;20030;-60
2024/02/22 20:04:35;;;;;;;16.17;6.80;;;;;;;;;;10329391;28;20050;-60
2024/02/22 20:09:35;;;;;;;14.43;6.40;;;;;;;;;;10331065;28;20034;-59
2024/02/22 20:14:36;;;;;;;9.38;5.95;;;;;;;;;;10330887;28;20031;-60
2024/02/22 20:19:37;;;;;;;13.50;6.72;;;;;;;;;;10331002;28;20037;-60
2024/02/22 20:24:38;;;;;;;7.50;6.18;;;;;;;;;;10330618;28;20030;-60
2024/02/22 20:29:38;;;;;;;11.80;6.57;;;;;;;;;;10330608;28;20026;-60
2024/02/22 20:34:39;;;;;;;8.05;6.20;;;;;;;;;;10330141;28;20034;-61
2024/02/22 20:39:39;;;;;;;12.82;6.35;;;;;;;;;;10330265;28;20113;-60
2024/02/22 20:44:40;;;;;;;13.18;6.55;;;;;;;;;;10329734;28;20027;-60
2024/02/22 20:49:40;;;;;;;8.95;6.20;;;;;;;;;;10330040;28;20035;-60
2024/02/22 20:54:42;;;;;;;7.50;5.97;;;;;;;;;;10328566;28;20029;-60
2024/02/22 20:59:43;;;;;;;8.23;5.90;;;;;;;;;;10329319;28;20026;-60
2024/02/22 21:04:43;;;;;;;9.18;6.47;;;;;;;;;;10328797;28;20054;-60
2024/02/22 21:09:44;;;;;;;11.48;6.70;;;;;;;;;;10328780;28;20410;-60
2024/02/22 21:14:45;;;;;;;10.85;6.82;;;;;;;;;;10329239;28;20395;-60
2024/02/22 21:19:45;;;;;;;13.90;5.57;;;;;;;;;;10328470;28;20378;-60
2024/02/22 21:24:47;;;;;;;8.98;6.13;;;;;;;;;;10328301;28;20026;-59
2024/02/22 21:29:48;;;;;;;9.10;6.65;;;;;;;;;;10328352;28;20026;-61
2024/02/22 21:34:48;;;;;;;8.77;6.60;;;;;;;;;;10327516;28;20387;-59
2024/02/22 21:39:49;;;;;;;8.88;6.45;;;;;;;;;;10328784;28;20038;-58
2024/02/22 21:44:50;;;;;;;12.95;7.15;;;;;;;;;;10327216;28;20030;-59
2024/02/22 21:49:50;;;;;;;14.15;6.40;;;;;;;;;;10327108;28;20030;-59
2024/02/22 21:54:51;;;;;;;8.48;6.28;;;;;;;;;;10327148;28;20033;-59
2024/02/22 21:59:51;;;;;;;12.20;7.35;;;;;;;;;;10327731;28;20026;-60
2024/02/22 22:04:52;;;;;;;12.70;6.53;;;;;;;;;;10326517;28;20042;-60
2024/02/22 22:09:52;;;;;;;10.35;7.00;;;;;;;;;;10325537;28;20026;-59
2024/02/22 22:14:53;;;;;;;11.15;7.10;;;;;;;;;;10327294;28;20039;-60
2024/02/22 22:19:54;;;;;;;12.85;7.75;;;;;;;;;;10326589;28;20038;-60
2024/02/22 22:24:54;;;;;;;13.15;7.38;;;;;;;;;;10326836;28;20035;-60
2024/02/22 22:29:55;;;;;;;14.05;7.65;;;;;;;;;;10326956;28;20038;-59
2024/02/22 22:34:55;;;;;;;10.73;6.80;;;;;;;;;;10326786;28;20026;-60
2024/02/22 22:39:56;;;;;;;21.33;8.25;;;;;;;;;;10324993;28;20030;-61
2024/02/22 22:44:57;;;;;;;8.02;6.97;;;;;;;;;;10324754;28;20027;-61
2024/02/22 22:49:58;;;;;;;13.60;7.95;;;;;;;;;;10325541;28;20026;-61
2024/02/22 22:54:58;;;;;;;15.15;7.68;;;;;;;;;;10325670;28;20049;-60
2024/02/22 22:59:59;;;;;;;13.48;7.55;;;;;;;;;;10326395;28;20374;-59
2024/02/22 23:04:59;;;;;;;11.27;7.18;;;;;;;;;;10324161;28;20430;-61
2024/02/22 23:10:00;;;;;;;12.85;7.40;;;;;;;;;;10323403;28;20027;-60
2024/02/22 23:15:01;;;;;;;9.90;6.82;;;;;;;;;;10324843;28;20033;-60
2024/02/22 23:20:01;;;;;;;11.43;7.53;;;;;;;;;;10329024;28;20026;-62
2024/02/22 23:25:04;;;;;;;11.98;7.65;;;;;;;;;;10333386;28;20489;-62
2024/02/22 23:30:05;;;;;;;10.25;7.38;;;;;;;;;;10333032;28;20046;-61
2024/02/22 23:35:11;;;;;;;12.65;6.28;;;;;;;;;;10332623;28;20441;-61
2024/02/22 23:40:11;;;;;;;9.43;7.07;;;;;;;;;;10332026;28;20031;-62
2024/02/22 23:45:12;;;;;;;10.77;7.13;;;;;;;;;;10331437;28;20034;-62
2024/02/22 23:50:12;;;;;;;11.32;7.47;;;;;;;;;;10332358;28;20384;-61
2024/02/22 23:55:14;;;;;;;12.45;7.40;;;;;;;;;;10332145;28;20404;-61
